createdAt,value
2023-02-12T00:00:23.148Z,6.60
2023-02-12T00:02:50.283Z,7.03
2023-02-12T00:05:17.436Z,7.45
2023-02-12T00:07:44.578Z,7.55
2023-02-12T00:10:12.188Z,8.10
2023-02-12T00:12:39.563Z,7.30
2023-02-12T00:15:06.954Z,7.85
2023-02-12T00:17:34.066Z,7.18
2023-02-12T00:20:01.217Z,7.18
2023-02-12T00:22:29.563Z,8.25
2023-02-12T00:24:56.840Z,8.45
2023-02-12T00:27:24.556Z,8.02
2023-02-12T00:29:51.646Z,7.75
2023-02-12T00:32:19.713Z,8.25
2023-02-12T00:34:47.824Z,7.80
2023-02-12T00:37:14.994Z,8.75
2023-02-12T00:39:42.425Z,8.00
2023-02-12T00:42:09.599Z,8.40
2023-02-12T00:44:36.841Z,9.00
2023-02-12T00:47:04.570Z,8.68
2023-02-12T00:49:35.343Z,9.15
2023-02-12T00:52:03.104Z,8.93
2023-02-12T00:54:30.588Z,8.57
2023-02-12T00:56:58.053Z,8.23
2023-02-12T00:59:25.728Z,7.60
2023-02-12T01:01:54.584Z,9.07
2023-02-12T01:04:21.784Z,7.38
2023-02-12T01:06:48.975Z,9.00
2023-02-12T01:09:16.323Z,8.73
2023-02-12T01:11:43.410Z,8.82
2023-02-12T01:14:10.566Z,9.00
2023-02-12T01:16:37.855Z,8.75
2023-02-12T01:19:05.469Z,9.50
2023-02-12T01:21:34.274Z,8.10
2023-02-12T01:24:02.324Z,9.80
2023-02-12T01:26:30.415Z,7.95
2023-02-12T01:28:58.815Z,8.30
2023-02-12T01:31:27.371Z,8.60
2023-02-12T01:33:55.633Z,9.25
2023-02-12T01:36:23.331Z,9.30
2023-02-12T01:38:50.877Z,9.77
2023-02-12T01:41:26.111Z,8.98
2023-02-12T01:44:18.661Z,8.70
2023-02-12T01:46:46.995Z,9.93
2023-02-12T01:49:25.244Z,9.82
2023-02-12T01:51:53.824Z,9.90
2023-02-12T01:54:21.613Z,8.93
2023-02-12T01:56:49.072Z,10.40
2023-02-12T01:59:17.192Z,10.63
2023-02-12T02:01:44.725Z,10.23
2023-02-12T02:04:17.800Z,8.32
2023-02-12T02:06:48.738Z,10.27
2023-02-12T02:09:16.849Z,10.32
2023-02-12T02:12:02.596Z,10.65
2023-02-12T02:14:32.820Z,10.45
2023-02-12T02:17:12.079Z,11.18
2023-02-12T02:20:03.240Z,9.00
2023-02-12T02:22:37.860Z,9.98
2023-02-12T02:25:24.073Z,8.93
2023-02-12T02:28:02.269Z,9.63
2023-02-12T02:30:48.488Z,10.23
2023-02-12T02:33:38.174Z,11.23
2023-02-12T02:36:05.319Z,9.63
2023-02-12T02:38:42.601Z,12.05
2023-02-12T02:41:17.240Z,11.98
2023-02-12T02:43:53.936Z,9.95
2023-02-12T02:46:24.213Z,10.85
2023-02-12T02:48:53.396Z,9.93
2023-02-12T02:51:29.381Z,10.32
2023-02-12T02:53:59.373Z,10.07
2023-02-12T02:56:28.194Z,11.15
2023-02-12T02:59:00.168Z,11.80
2023-02-12T03:03:59.184Z,8.88
2023-02-12T03:08:55.837Z,8.40
2023-02-12T03:11:22.862Z,10.23
2023-02-12T03:13:52.866Z,10.20
2023-02-12T03:16:40.308Z,9.68
2023-02-12T03:19:39.963Z,9.70
2023-02-12T03:22:08.932Z,9.65
2023-02-12T03:24:47.064Z,9.00
2023-02-12T03:27:20.176Z,9.48
2023-02-12T03:29:47.616Z,9.50
2023-02-12T03:32:17.589Z,9.40
2023-02-12T03:34:52.604Z,8.77
2023-02-12T03:37:23.442Z,9.60
2023-02-12T03:39:56.688Z,9.95
2023-02-12T03:42:35.731Z,8.25
2023-02-12T03:45:21.535Z,8.45
2023-02-12T03:48:15.150Z,9.88
2023-02-12T03:50:45.120Z,7.47
2023-02-12T03:53:12.450Z,8.77
2023-02-12T03:55:41.998Z,8.57
2023-02-12T03:58:10.641Z,7.25
2023-02-12T04:00:39.050Z,7.90
2023-02-12T04:03:06.878Z,6.97
2023-02-12T04:05:33.990Z,8.27
2023-02-12T04:08:01.516Z,9.18
2023-02-12T04:10:48.917Z,7.80
2023-02-12T04:13:19.009Z,8.48
2023-02-12T04:16:04.998Z,7.70
2023-02-12T04:18:41.441Z,9.52
2023-02-12T04:21:11.865Z,7.20
2023-02-12T04:23:41.796Z,8.50
2023-02-12T04:26:08.844Z,9.32
2023-02-12T04:28:50.438Z,7.05
2023-02-12T04:31:37.193Z,9.57
2023-02-12T04:34:13.435Z,7.47
2023-02-12T04:36:50.184Z,7.32
2023-02-12T04:39:20.866Z,6.45
2023-02-12T04:41:48.056Z,7.75
2023-02-12T04:44:20.985Z,8.32
2023-02-12T04:46:48.176Z,8.18
2023-02-12T04:49:16.648Z,7.95
2023-02-12T04:51:44.035Z,7.97
2023-02-12T04:54:11.485Z,9.02
2023-02-12T04:56:38.628Z,7.80
2023-02-12T04:59:05.759Z,8.27
2023-02-12T05:01:35.374Z,8.65
2023-02-12T05:04:02.636Z,10.02
2023-02-12T05:06:30.491Z,6.82
2023-02-12T05:08:58.072Z,7.05
2023-02-12T05:11:25.223Z,7.22
2023-02-12T05:13:53.149Z,7.07
2023-02-12T05:16:20.909Z,8.07
2023-02-12T05:18:48.431Z,8.93
2023-02-12T05:21:15.644Z,7.65
2023-02-12T05:23:43.375Z,8.85
2023-02-12T05:26:14.904Z,7.32
2023-02-12T05:28:42.113Z,7.30
2023-02-12T05:31:11.113Z,7.68
2023-02-12T05:33:38.279Z,8.48
2023-02-12T05:36:09.706Z,8.18
2023-02-12T05:38:39.539Z,10.18
2023-02-12T05:41:12.059Z,8.77
2023-02-12T05:43:39.585Z,8.77
2023-02-12T05:46:07.139Z,9.48
2023-02-12T05:48:34.594Z,10.32
2023-02-12T05:51:10.020Z,8.23
2023-02-12T05:53:38.339Z,9.48
2023-02-12T05:56:08.474Z,9.85
2023-02-12T05:58:35.634Z,8.75
2023-02-12T06:01:02.755Z,8.20
2023-02-12T06:03:29.835Z,9.00
2023-02-12T06:05:57.249Z,10.32
2023-02-12T06:08:24.594Z,8.50
2023-02-12T06:10:51.919Z,9.82
2023-02-12T06:13:19.071Z,9.57
2023-02-12T06:15:46.198Z,9.63
2023-02-12T06:18:13.337Z,10.60
2023-02-12T06:20:40.635Z,11.13
2023-02-12T06:23:07.770Z,10.55
2023-02-12T06:25:34.855Z,10.75
2023-02-12T06:28:02.074Z,12.07
2023-02-12T06:30:29.295Z,12.00
2023-02-12T06:32:56.451Z,10.23
2023-02-12T06:35:23.685Z,11.50
2023-02-12T06:37:50.752Z,12.50
2023-02-12T06:40:17.995Z,11.75
2023-02-12T06:42:45.148Z,11.98
2023-02-12T06:45:12.240Z,11.38
2023-02-12T06:47:39.363Z,12.13
2023-02-12T06:50:06.930Z,13.15
2023-02-12T06:52:34.058Z,11.85
2023-02-12T06:55:01.193Z,11.70
2023-02-12T06:57:29.973Z,12.75
2023-02-12T06:59:57.580Z,12.32
2023-02-12T07:02:24.829Z,12.40
2023-02-12T07:04:51.990Z,13.52
2023-02-12T07:07:19.096Z,11.50
2023-02-12T07:09:46.292Z,12.05
2023-02-12T07:12:13.440Z,11.77
2023-02-12T07:14:40.596Z,11.82
2023-02-12T07:17:09.595Z,12.95
2023-02-12T07:19:37.332Z,12.23
2023-02-12T07:22:04.631Z,13.07
2023-02-12T07:24:31.914Z,13.20
2023-02-12T07:26:59.056Z,13.63
2023-02-12T07:29:26.203Z,12.93
2023-02-12T07:31:53.454Z,13.02
2023-02-12T07:34:20.840Z,13.77
2023-02-12T07:36:47.936Z,12.50
2023-02-12T07:39:15.058Z,13.38
2023-02-12T07:41:42.142Z,12.50
2023-02-12T07:44:11.116Z,11.27
2023-02-12T07:46:40.441Z,12.68
2023-02-12T07:49:08.165Z,12.88
2023-02-12T07:51:35.758Z,13.15
2023-02-12T07:54:03.279Z,12.63
2023-02-12T07:56:32.628Z,11.90
2023-02-12T07:59:00.974Z,12.20
2023-02-12T08:01:29.787Z,12.35
2023-02-12T08:04:00.922Z,13.38
2023-02-12T08:06:29.107Z,12.50
2023-02-12T08:08:57.612Z,11.63
2023-02-12T08:11:25.451Z,11.52
2023-02-12T08:13:52.742Z,12.63
2023-02-12T08:16:21.191Z,10.70
2023-02-12T08:18:48.710Z,12.68
2023-02-12T08:21:18.231Z,13.20
2023-02-12T08:23:45.947Z,11.80
2023-02-12T08:26:14.737Z,11.75
2023-02-12T08:28:46.514Z,13.40
2023-02-12T08:31:19.942Z,11.50
2023-02-12T08:33:47.858Z,12.50
2023-02-12T08:36:16.657Z,12.23
2023-02-12T08:38:44.638Z,10.27
2023-02-12T08:41:13.343Z,11.90
2023-02-12T08:43:41.257Z,11.38
2023-02-12T08:46:11.565Z,12.10
2023-02-12T08:48:39.189Z,11.63
2023-02-12T08:51:17.004Z,11.00
2023-02-12T08:53:44.768Z,10.57
2023-02-12T08:56:12.586Z,9.57
2023-02-12T08:58:39.782Z,10.50
2023-02-12T09:01:10.692Z,10.43
2023-02-12T09:03:38.321Z,10.55
2023-02-12T09:06:09.143Z,10.82
2023-02-12T09:08:37.243Z,10.27
2023-02-12T09:11:12.567Z,9.07
2023-02-12T09:13:40.944Z,9.85
2023-02-12T09:16:08.434Z,9.55
2023-02-12T09:18:36.096Z,10.50
2023-02-12T09:21:04.373Z,8.82
2023-02-12T09:23:31.818Z,9.00
2023-02-12T09:25:59.115Z,9.68
2023-02-12T09:28:26.509Z,9.73
2023-02-12T09:30:53.736Z,10.57
2023-02-12T09:33:22.598Z,10.88
2023-02-12T09:35:50.324Z,11.32
2023-02-12T09:38:17.495Z,10.65
2023-02-12T09:41:06.867Z,9.52
2023-02-12T09:43:54.094Z,10.30
2023-02-12T09:46:50.820Z,9.88
2023-02-12T09:49:24.488Z,9.80
2023-02-12T09:51:55.012Z,9.85
2023-02-12T09:54:24.382Z,9.95
2023-02-12T09:56:58.542Z,11.13
2023-02-12T09:59:38.686Z,9.30
2023-02-12T10:02:16.078Z,9.70
2023-02-12T10:05:00.016Z,10.43
2023-02-12T10:07:34.180Z,9.40
2023-02-12T10:10:06.915Z,9.82
2023-02-12T10:12:38.831Z,9.38
2023-02-12T10:15:12.809Z,9.93
2023-02-12T10:17:45.302Z,9.32
2023-02-12T10:20:31.241Z,9.40
2023-02-12T10:23:17.348Z,8.52
2023-02-12T10:25:47.576Z,10.13
2023-02-12T10:28:19.604Z,9.27
2023-02-12T10:30:56.010Z,9.38
2023-02-12T10:33:44.174Z,8.65
2023-02-12T10:36:19.676Z,8.70
2023-02-12T10:38:49.941Z,8.57
2023-02-12T10:41:17.382Z,8.05
2023-02-12T10:43:44.516Z,8.07
2023-02-12T10:46:15.720Z,7.72
2023-02-12T10:48:44.932Z,8.25
2023-02-12T10:51:31.406Z,7.68
2023-02-12T10:54:00.816Z,8.15
2023-02-12T10:56:27.986Z,8.50
2023-02-12T10:58:59.605Z,8.07
2023-02-12T11:01:38.243Z,9.52
2023-02-12T11:04:20.699Z,8.30
2023-02-12T11:06:57.804Z,7.03
2023-02-12T11:09:29.388Z,6.90
2023-02-12T11:11:56.529Z,7.35
2023-02-12T11:14:24.058Z,7.53
2023-02-12T11:16:55.723Z,7.07
2023-02-12T11:19:25.020Z,7.10
2023-02-12T11:21:52.680Z,6.18
2023-02-12T11:24:33.463Z,7.95
2023-02-12T11:27:13.019Z,6.35
2023-02-12T11:29:40.586Z,6.63
2023-02-12T11:32:08.877Z,6.95
2023-02-12T11:34:36.721Z,7.20
2023-02-12T11:37:05.114Z,6.95
2023-02-12T11:39:34.123Z,6.65
2023-02-12T11:42:06.254Z,6.75
2023-02-12T11:44:36.082Z,6.38
2023-02-12T11:47:09.171Z,6.35
2023-02-12T11:49:44.149Z,5.30
2023-02-12T11:52:21.796Z,5.35
2023-02-12T11:54:49.750Z,6.03
2023-02-12T11:57:39.744Z,6.55
2023-02-12T12:00:13.999Z,5.32
2023-02-12T12:02:43.615Z,6.30
2023-02-12T12:05:14.239Z,6.57
2023-02-12T12:07:43.958Z,5.18
2023-02-12T12:10:11.029Z,5.75
2023-02-12T12:12:38.457Z,6.53
2023-02-12T12:15:35.814Z,5.80
2023-02-12T12:18:44.496Z,5.25
2023-02-12T12:21:17.989Z,5.43
2023-02-12T12:23:49.802Z,6.25
2023-02-12T12:26:24.572Z,4.72
2023-02-12T12:29:21.962Z,5.35
2023-02-12T12:31:51.538Z,4.63
2023-02-12T12:34:21.001Z,3.90
2023-02-12T12:36:54.232Z,5.28
2023-02-12T12:39:36.762Z,5.20
2023-02-12T12:42:03.820Z,4.45
2023-02-12T12:44:40.179Z,4.68
2023-02-12T12:47:26.125Z,4.30
2023-02-12T12:49:56.577Z,3.60
2023-02-12T12:52:37.769Z,4.07
2023-02-12T12:55:18.446Z,3.40
2023-02-12T12:57:55.137Z,3.38
2023-02-12T13:00:34.710Z,4.05
2023-02-12T13:03:05.258Z,3.88
2023-02-12T13:05:41.233Z,4.13
2023-02-12T13:08:11.046Z,4.05
2023-02-12T13:10:43.048Z,4.70
2023-02-12T13:13:18.349Z,3.97
2023-02-12T13:15:45.492Z,3.42
2023-02-12T13:18:23.943Z,3.70
2023-02-12T13:20:53.837Z,4.30
2023-02-12T13:23:42.833Z,4.00
2023-02-12T13:26:09.949Z,2.72
2023-02-12T13:28:39.529Z,3.33
2023-02-12T13:31:30.009Z,2.72
2023-02-12T13:33:58.823Z,2.38
2023-02-12T13:36:25.988Z,1.92
2023-02-12T13:38:57.038Z,2.28
2023-02-12T13:41:24.594Z,2.67
2023-02-12T13:43:54.511Z,2.33
2023-02-12T13:46:30.271Z,2.83
2023-02-12T13:49:00.460Z,2.10
2023-02-12T13:51:30.670Z,2.33
2023-02-12T13:54:16.488Z,2.03
2023-02-12T13:56:49.533Z,2.70
2023-02-12T13:59:32.217Z,2.42
2023-02-12T14:02:00.326Z,2.58
2023-02-12T14:04:47.669Z,2.90
2023-02-12T14:07:15.452Z,2.55
2023-02-12T14:09:43.838Z,1.90
2023-02-12T14:12:14.373Z,2.90
2023-02-12T14:14:52.198Z,2.45
2023-02-12T14:17:31.826Z,1.77
2023-02-12T14:20:17.790Z,1.90
2023-02-12T14:22:44.974Z,2.10
2023-02-12T14:25:14.859Z,2.25
2023-02-12T14:27:46.750Z,2.78
2023-02-12T14:32:55.130Z,3.80
2023-02-12T14:35:28.422Z,3.13
2023-02-12T14:37:59.714Z,2.88
2023-02-12T14:40:42.848Z,2.67
2023-02-12T14:43:26.361Z,3.90
2023-02-12T14:45:54.490Z,4.00
2023-02-12T14:48:41.464Z,5.25
2023-02-12T14:51:15.378Z,4.28
2023-02-12T14:53:42.711Z,4.35
2023-02-12T14:56:11.185Z,3.95
2023-02-12T14:58:38.438Z,4.70
2023-02-12T15:01:06.663Z,5.80
2023-02-12T15:03:40.071Z,5.50
2023-02-12T15:06:27.594Z,6.40
2023-02-12T15:09:10.058Z,6.75
2023-02-12T15:11:43.919Z,6.35
2023-02-12T15:14:22.900Z,6.53
2023-02-12T15:16:53.106Z,6.75
2023-02-12T15:19:24.629Z,7.50
2023-02-12T15:21:54.470Z,7.25
2023-02-12T15:24:23.461Z,7.45
2023-02-12T15:26:54.995Z,7.78
2023-02-12T15:29:24.916Z,8.00
2023-02-12T15:31:53.894Z,9.45
2023-02-12T15:34:22.806Z,8.38
2023-02-12T15:36:50.427Z,8.45
2023-02-12T15:39:20.563Z,7.85
2023-02-12T15:41:47.632Z,7.57
2023-02-12T15:44:23.799Z,7.97
2023-02-12T15:47:19.212Z,7.97
2023-02-12T15:49:46.442Z,7.60
2023-02-12T15:52:19.719Z,7.05
2023-02-12T15:54:47.303Z,6.90
2023-02-12T15:57:19.297Z,6.82
2023-02-12T16:02:30.668Z,6.47
2023-02-12T16:04:58.708Z,6.65
2023-02-12T16:07:27.457Z,7.53
2023-02-12T16:09:54.873Z,5.97
2023-02-12T16:12:28.177Z,6.70
2023-02-12T16:14:57.521Z,5.90
2023-02-12T16:17:31.457Z,6.65
2023-02-12T16:20:00.257Z,8.10
2023-02-12T16:22:35.071Z,7.95
2023-02-12T16:25:02.545Z,7.88
2023-02-12T16:27:35.096Z,6.88
2023-02-12T16:30:07.087Z,7.20
2023-02-12T16:35:01.414Z,7.38
2023-02-12T16:37:37.558Z,6.88
2023-02-12T16:40:07.465Z,6.78
2023-02-12T16:42:34.734Z,6.03
2023-02-12T16:45:02.124Z,6.35
2023-02-12T16:47:29.330Z,5.97
2023-02-12T16:50:02.644Z,6.50
2023-02-12T16:52:29.796Z,5.55
2023-02-12T16:54:57.005Z,5.72
2023-02-12T16:57:24.116Z,5.40
2023-02-12T16:59:51.206Z,5.68
2023-02-12T17:02:18.767Z,6.03
2023-02-12T17:04:45.929Z,5.72
2023-02-12T17:07:20.683Z,5.65
2023-02-12T17:09:48.196Z,5.65
2023-02-12T17:12:15.648Z,6.35
2023-02-12T17:14:42.924Z,6.63
2023-02-12T17:17:10.141Z,8.77
2023-02-12T17:19:37.412Z,9.35
2023-02-12T17:22:06.091Z,9.98
2023-02-12T17:24:36.503Z,8.98
2023-02-12T17:27:03.736Z,9.05
2023-02-12T17:29:31.184Z,9.15
2023-02-12T17:31:58.636Z,8.75
2023-02-12T17:34:27.554Z,8.75
2023-02-12T17:36:55.936Z,10.63
2023-02-12T17:39:23.119Z,8.93
2023-02-12T17:41:51.514Z,8.38
2023-02-12T17:44:18.639Z,7.72
2023-02-12T17:46:45.784Z,7.68
2023-02-12T17:49:13.207Z,8.27
2023-02-12T17:51:40.404Z,7.22
2023-02-12T17:54:07.582Z,7.72
2023-02-12T17:56:34.698Z,7.22
2023-02-12T17:59:01.941Z,6.82
2023-02-12T18:01:29.203Z,7.65
2023-02-12T18:03:58.324Z,7.28
2023-02-12T18:06:27.919Z,6.95
2023-02-12T18:08:56.465Z,7.18
2023-02-12T18:11:23.656Z,6.82
2023-02-12T18:13:54.156Z,5.72
2023-02-12T18:16:21.362Z,7.05
2023-02-12T18:18:48.783Z,6.78
2023-02-12T18:21:16.708Z,6.65
2023-02-12T18:23:43.874Z,7.55
2023-02-12T18:26:12.769Z,7.25
2023-02-12T18:28:40.185Z,7.25
2023-02-12T18:31:07.757Z,7.10
2023-02-12T18:33:35.017Z,8.23
2023-02-12T18:36:03.433Z,6.85
2023-02-12T18:38:30.964Z,7.18
2023-02-12T18:41:00.239Z,7.55
2023-02-12T18:43:28.041Z,6.30
2023-02-12T18:45:55.370Z,7.10
2023-02-12T18:48:23.152Z,6.10
2023-02-12T18:50:51.769Z,8.38
2023-02-12T18:53:19.139Z,7.03
2023-02-12T18:55:46.564Z,7.07
2023-02-12T18:58:13.714Z,8.48
2023-02-12T19:00:41.043Z,8.68
2023-02-12T19:03:08.188Z,9.00
2023-02-12T19:05:35.294Z,8.50
2023-02-12T19:08:03.071Z,8.25
2023-02-12T19:10:30.280Z,8.93
2023-02-12T19:12:57.780Z,8.20
2023-02-12T19:15:25.020Z,8.50
2023-02-12T19:17:52.141Z,9.88
2023-02-12T19:20:19.418Z,10.15
2023-02-12T19:22:47.273Z,10.75
2023-02-12T19:25:14.547Z,10.23
2023-02-12T19:27:41.726Z,10.50
2023-02-12T19:30:09.241Z,9.85
2023-02-12T19:32:38.165Z,9.25
2023-02-12T19:35:05.965Z,8.32
2023-02-12T19:37:33.133Z,9.23
2023-02-12T19:40:00.185Z,8.98
2023-02-12T19:42:27.452Z,8.48
2023-02-12T19:44:54.600Z,10.00
2023-02-12T19:47:21.695Z,9.80
2023-02-12T19:49:48.803Z,9.55
2023-02-12T19:52:15.881Z,9.80
2023-02-12T19:54:44.800Z,9.60
2023-02-12T19:57:13.463Z,8.88
2023-02-12T19:59:41.574Z,10.25
2023-02-12T20:02:10.321Z,9.05
2023-02-12T20:04:37.500Z,9.50
2023-02-12T20:07:05.032Z,10.45
2023-02-12T20:09:32.214Z,9.38
2023-02-12T20:11:59.618Z,11.25
2023-02-12T20:14:26.875Z,9.85
2023-02-12T20:16:58.588Z,11.55
2023-02-12T20:19:29.969Z,11.02
2023-02-12T20:21:57.770Z,10.10
2023-02-12T20:24:26.506Z,9.90
2023-02-12T20:26:53.926Z,10.18
2023-02-12T20:29:21.403Z,9.15
2023-02-12T20:31:48.683Z,9.13
2023-02-12T20:34:18.200Z,9.70
2023-02-12T20:36:46.393Z,9.68
2023-02-12T20:39:15.080Z,9.35
2023-02-12T20:41:42.360Z,10.02
2023-02-12T20:44:11.585Z,9.25
2023-02-12T20:46:39.572Z,9.60
2023-02-12T20:49:07.481Z,8.35
2023-02-12T20:51:34.920Z,9.20
2023-02-12T20:54:02.620Z,8.45
2023-02-12T20:56:31.358Z,9.07
2023-02-12T20:58:59.224Z,10.40
2023-02-12T21:01:34.715Z,10.13
2023-02-12T21:04:06.844Z,10.20
2023-02-12T21:09:01.448Z,8.38
2023-02-12T21:11:29.364Z,9.93
2023-02-12T21:14:02.454Z,10.40
2023-02-12T21:16:31.453Z,8.85
2023-02-12T21:18:58.715Z,9.90
2023-02-12T21:21:27.866Z,9.40
2023-02-12T21:23:57.014Z,9.10
2023-02-12T21:26:25.507Z,10.32
2023-02-12T21:28:53.082Z,8.77
2023-02-12T21:31:22.850Z,10.23
2023-02-12T21:33:50.970Z,9.57
2023-02-12T21:36:22.854Z,9.48
2023-02-12T21:38:50.605Z,9.45
2023-02-12T21:41:22.237Z,10.13
2023-02-12T21:43:51.125Z,9.50
2023-02-12T21:46:19.393Z,9.20
2023-02-12T21:48:46.852Z,8.70
2023-02-12T21:51:21.681Z,9.30
2023-02-12T21:53:49.949Z,9.13
2023-02-12T21:56:17.244Z,9.45
2023-02-12T21:58:44.707Z,9.23
2023-02-12T22:01:19.055Z,9.63
2023-02-12T22:03:46.327Z,9.23
2023-02-12T22:06:14.505Z,9.57
2023-02-12T22:08:41.700Z,8.88
2023-02-12T22:11:10.000Z,9.43
2023-02-12T22:13:37.539Z,8.70
2023-02-12T22:16:24.418Z,9.25
2023-02-12T22:18:56.318Z,10.82
2023-02-12T22:21:24.555Z,8.02
2023-02-12T22:23:51.831Z,8.45
2023-02-12T22:26:20.138Z,9.70
2023-02-12T22:28:51.322Z,10.00
2023-02-12T22:31:19.670Z,9.75
2023-02-12T22:33:47.382Z,8.43
2023-02-12T22:36:14.433Z,9.20
2023-02-12T22:38:41.742Z,10.32
2023-02-12T22:41:09.560Z,10.15
2023-02-12T22:43:37.848Z,9.30
2023-02-12T22:46:05.583Z,9.13
2023-02-12T22:48:32.700Z,8.43
2023-02-12T22:51:00.208Z,9.07
2023-02-12T22:53:27.638Z,9.68
2023-02-12T22:55:54.726Z,9.43
2023-02-12T22:58:21.818Z,8.20
2023-02-12T23:00:49.006Z,8.38
2023-02-12T23:03:16.131Z,9.00
2023-02-12T23:05:43.246Z,11.68
2023-02-12T23:08:10.303Z,8.48
2023-02-12T23:10:37.387Z,8.68
2023-02-12T23:13:04.469Z,8.27
2023-02-12T23:15:32.025Z,7.88
2023-02-12T23:17:59.159Z,8.52
2023-02-12T23:20:26.240Z,8.57
2023-02-12T23:22:53.347Z,8.57
2023-02-12T23:25:20.439Z,9.30
2023-02-12T23:27:47.555Z,7.75
2023-02-12T23:30:14.970Z,9.48
2023-02-12T23:32:42.087Z,9.32
2023-02-12T23:35:09.192Z,7.80
2023-02-12T23:37:36.309Z,7.80
2023-02-12T23:40:03.497Z,8.23
2023-02-12T23:42:30.541Z,8.00
2023-02-12T23:44:57.879Z,8.25
2023-02-12T23:47:25.060Z,8.68
2023-02-12T23:49:52.196Z,7.75
2023-02-12T23:52:19.369Z,9.38
2023-02-12T23:54:46.428Z,8.35
2023-02-12T23:57:13.472Z,8.82
2023-02-12T23:59:40.533Z,7.13
